sensor_id;sensor_type;location;lat;lon;timestamp;P1;durP1;ratioP1;P2;durP2;ratioP2
55915;SDS011;41826;53.246;-6.670;2023-07-08T00:00:43;7.32;;;2.70;;
55915;SDS011;41826;53.246;-6.670;2023-07-08T00:03:09;6.45;;;2.72;;
55915;SDS011;41826;53.246;-6.670;2023-07-08T00:05:35;3.72;;;2.50;;
55915;SDS011;41826;53.246;-6.670;2023-07-08T00:08:01;6.95;;;3.15;;
55915;SDS011;41826;53.246;-6.670;2023-07-08T00:10:27;7.75;;;2.40;;
55915;SDS011;41826;53.246;-6.670;2023-07-08T00:12:54;8.18;;;2.92;;
55915;SDS011;41826;53.246;-6.670;2023-07-08T00:15:21;4.40;;;2.60;;
55915;SDS011;41826;53.246;-6.670;2023-07-08T00:17:49;4.32;;;2.85;;
55915;SDS011;41826;53.246;-6.670;2023-07-08T00:22:48;5.63;;;2.70;;
55915;SDS011;41826;53.246;-6.670;2023-07-08T00:25:16;4.43;;;2.95;;
55915;SDS011;41826;53.246;-6.670;2023-07-08T00:27:44;3.95;;;2.67;;
55915;SDS011;41826;53.246;-6.670;2023-07-08T00:30:21;8.23;;;2.78;;
55915;SDS011;41826;53.246;-6.670;2023-07-08T00:32:51;3.25;;;2.65;;
55915;SDS011;41826;53.246;-6.670;2023-07-08T00:35:24;7.28;;;3.10;;
55915;SDS011;41826;53.246;-6.670;2023-07-08T00:37:53;4.57;;;2.95;;
55915;SDS011;41826;53.246;-6.670;2023-07-08T00:40:21;8.30;;;3.38;;
55915;SDS011;41826;53.246;-6.670;2023-07-08T00:42:48;8.10;;;3.20;;
55915;SDS011;41826;53.246;-6.670;2023-07-08T00:45:24;10.40;;;3.40;;
55915;SDS011;41826;53.246;-6.670;2023-07-08T00:48:05;6.45;;;3.03;;
55915;SDS011;41826;53.246;-6.670;2023-07-08T00:50:44;4.97;;;2.90;;
55915;SDS011;41826;53.246;-6.670;2023-07-08T00:53:43;13.07;;;3.65;;
55915;SDS011;41826;53.246;-6.670;2023-07-08T00:58:33;5.70;;;3.13;;
55915;SDS011;41826;53.246;-6.670;2023-07-08T01:00:59;5.45;;;2.83;;
55915;SDS011;41826;53.246;-6.670;2023-07-08T01:03:28;7.30;;;3.58;;
55915;SDS011;41826;53.246;-6.670;2023-07-08T01:05:54;7.20;;;3.22;;
55915;SDS011;41826;53.246;-6.670;2023-07-08T01:08:25;9.48;;;3.30;;
55915;SDS011;41826;53.246;-6.670;2023-07-08T01:10:54;5.70;;;3.13;;
55915;SDS011;41826;53.246;-6.670;2023-07-08T01:13:25;6.18;;;3.88;;
55915;SDS011;41826;53.246;-6.670;2023-07-08T01:15:51;4.75;;;3.42;;
55915;SDS011;41826;53.246;-6.670;2023-07-08T01:18:17;4.45;;;3.30;;
55915;SDS011;41826;53.246;-6.670;2023-07-08T01:20:49;5.13;;;3.42;;
55915;SDS011;41826;53.246;-6.670;2023-07-08T01:23:14;10.07;;;3.53;;
55915;SDS011;41826;53.246;-6.670;2023-07-08T01:25:41;10.10;;;3.72;;
55915;SDS011;41826;53.246;-6.670;2023-07-08T01:28:08;8.27;;;3.13;;
55915;SDS011;41826;53.246;-6.670;2023-07-08T01:30:33;6.45;;;3.58;;
55915;SDS011;41826;53.246;-6.670;2023-07-08T01:33:02;9.13;;;4.00;;
55915;SDS011;41826;53.246;-6.670;2023-07-08T01:35:32;8.18;;;4.15;;
55915;SDS011;41826;53.246;-6.670;2023-07-08T01:37:59;6.00;;;4.07;;
55915;SDS011;41826;53.246;-6.670;2023-07-08T01:40:37;8.70;;;4.13;;
55915;SDS011;41826;53.246;-6.670;2023-07-08T01:43:04;6.78;;;3.65;;
55915;SDS011;41826;53.246;-6.670;2023-07-08T01:45:40;8.75;;;4.20;;
55915;SDS011;41826;53.246;-6.670;2023-07-08T01:50:32;10.15;;;3.75;;
55915;SDS011;41826;53.246;-6.670;2023-07-08T01:53:03;7.07;;;3.80;;
55915;SDS011;41826;53.246;-6.670;2023-07-08T01:55:33;8.45;;;4.15;;
55915;SDS011;41826;53.246;-6.670;2023-07-08T01:57:59;9.23;;;4.10;;
55915;SDS011;41826;53.246;-6.670;2023-07-08T02:00:24;7.13;;;3.90;;
55915;SDS011;41826;53.246;-6.670;2023-07-08T02:02:50;8.15;;;3.70;;
55915;SDS011;41826;53.246;-6.670;2023-07-08T02:05:16;6.57;;;3.45;;
55915;SDS011;41826;53.246;-6.670;2023-07-08T02:07:41;8.75;;;4.00;;
55915;SDS011;41826;53.246;-6.670;2023-07-08T02:10:07;8.38;;;4.07;;
55915;SDS011;41826;53.246;-6.670;2023-07-08T02:12:33;7.43;;;3.90;;
55915;SDS011;41826;53.246;-6.670;2023-07-08T02:15:02;7.90;;;4.13;;
55915;SDS011;41826;53.246;-6.670;2023-07-08T02:17:28;7.78;;;3.60;;
55915;SDS011;41826;53.246;-6.670;2023-07-08T02:19:55;9.00;;;4.07;;
55915;SDS011;41826;53.246;-6.670;2023-07-08T02:22:21;8.68;;;3.95;;
55915;SDS011;41826;53.246;-6.670;2023-07-08T02:24:46;8.80;;;3.80;;
55915;SDS011;41826;53.246;-6.670;2023-07-08T02:27:13;10.20;;;3.60;;
55915;SDS011;41826;53.246;-6.670;2023-07-08T02:29:38;8.63;;;4.28;;
55915;SDS011;41826;53.246;-6.670;2023-07-08T02:32:04;5.40;;;3.83;;
55915;SDS011;41826;53.246;-6.670;2023-07-08T02:34:31;6.28;;;3.70;;
55915;SDS011;41826;53.246;-6.670;2023-07-08T02:36:56;10.07;;;4.47;;
55915;SDS011;41826;53.246;-6.670;2023-07-08T02:39:22;10.23;;;4.03;;
55915;SDS011;41826;53.246;-6.670;2023-07-08T02:41:48;9.23;;;4.00;;
55915;SDS011;41826;53.246;-6.670;2023-07-08T02:44:13;9.60;;;4.25;;
55915;SDS011;41826;53.246;-6.670;2023-07-08T02:46:39;8.82;;;3.78;;
55915;SDS011;41826;53.246;-6.670;2023-07-08T02:49:04;11.57;;;4.00;;
55915;SDS011;41826;53.246;-6.670;2023-07-08T02:51:30;7.57;;;4.30;;
55915;SDS011;41826;53.246;-6.670;2023-07-08T02:53:56;7.63;;;3.80;;
55915;SDS011;41826;53.246;-6.670;2023-07-08T02:56:21;6.32;;;3.80;;
55915;SDS011;41826;53.246;-6.670;2023-07-08T02:58:47;6.88;;;3.53;;
55915;SDS011;41826;53.246;-6.670;2023-07-08T03:01:13;8.68;;;3.80;;
55915;SDS011;41826;53.246;-6.670;2023-07-08T03:03:42;8.48;;;3.45;;
55915;SDS011;41826;53.246;-6.670;2023-07-08T03:06:11;4.95;;;3.58;;
55915;SDS011;41826;53.246;-6.670;2023-07-08T03:08:36;9.88;;;3.78;;
55915;SDS011;41826;53.246;-6.670;2023-07-08T03:11:03;6.97;;;3.38;;
55915;SDS011;41826;53.246;-6.670;2023-07-08T03:13:30;10.23;;;3.58;;
55915;SDS011;41826;53.246;-6.670;2023-07-08T03:15:56;9.43;;;3.67;;
55915;SDS011;41826;53.246;-6.670;2023-07-08T03:18:24;10.45;;;3.40;;
55915;SDS011;41826;53.246;-6.670;2023-07-08T03:20:51;6.18;;;3.65;;
55915;SDS011;41826;53.246;-6.670;2023-07-08T03:23:17;6.10;;;3.22;;
55915;SDS011;41826;53.246;-6.670;2023-07-08T03:25:43;8.57;;;4.32;;
55915;SDS011;41826;53.246;-6.670;2023-07-08T03:28:08;9.65;;;3.47;;
55915;SDS011;41826;53.246;-6.670;2023-07-08T03:30:43;5.88;;;3.10;;
55915;SDS011;41826;53.246;-6.670;2023-07-08T03:33:10;7.43;;;3.53;;
55915;SDS011;41826;53.246;-6.670;2023-07-08T03:35:36;7.07;;;3.55;;
55915;SDS011;41826;53.246;-6.670;2023-07-08T03:38:03;10.15;;;3.88;;
55915;SDS011;41826;53.246;-6.670;2023-07-08T03:40:29;5.47;;;3.08;;
55915;SDS011;41826;53.246;-6.670;2023-07-08T03:42:55;6.38;;;3.33;;
55915;SDS011;41826;53.246;-6.670;2023-07-08T03:45:21;7.80;;;3.55;;
55915;SDS011;41826;53.246;-6.670;2023-07-08T03:47:46;6.30;;;3.35;;
55915;SDS011;41826;53.246;-6.670;2023-07-08T03:50:16;8.25;;;3.85;;
55915;SDS011;41826;53.246;-6.670;2023-07-08T03:52:45;4.82;;;3.13;;
55915;SDS011;41826;53.246;-6.670;2023-07-08T03:55:11;8.95;;;4.10;;
55915;SDS011;41826;53.246;-6.670;2023-07-08T03:57:37;11.80;;;3.58;;
55915;SDS011;41826;53.246;-6.670;2023-07-08T04:00:03;7.22;;;3.25;;
55915;SDS011;41826;53.246;-6.670;2023-07-08T04:02:28;7.03;;;3.05;;
55915;SDS011;41826;53.246;-6.670;2023-07-08T04:04:54;12.80;;;3.17;;
55915;SDS011;41826;53.246;-6.670;2023-07-08T04:07:19;7.03;;;3.30;;
55915;SDS011;41826;53.246;-6.670;2023-07-08T04:09:45;9.75;;;3.33;;
55915;SDS011;41826;53.246;-6.670;2023-07-08T04:12:17;6.78;;;3.13;;
55915;SDS011;41826;53.246;-6.670;2023-07-08T04:14:43;12.25;;;3.33;;
55915;SDS011;41826;53.246;-6.670;2023-07-08T04:17:08;7.35;;;2.65;;
55915;SDS011;41826;53.246;-6.670;2023-07-08T04:19:34;5.05;;;2.90;;
55915;SDS011;41826;53.246;-6.670;2023-07-08T04:22:01;4.13;;;2.30;;
55915;SDS011;41826;53.246;-6.670;2023-07-08T04:24:27;11.77;;;3.50;;
55915;SDS011;41826;53.246;-6.670;2023-07-08T04:26:53;7.88;;;2.50;;
55915;SDS011;41826;53.246;-6.670;2023-07-08T04:29:19;5.68;;;2.88;;
55915;SDS011;41826;53.246;-6.670;2023-07-08T04:31:46;8.35;;;3.03;;
55915;SDS011;41826;53.246;-6.670;2023-07-08T04:34:13;6.32;;;2.30;;
55915;SDS011;41826;53.246;-6.670;2023-07-08T04:36:39;6.90;;;2.80;;
55915;SDS011;41826;53.246;-6.670;2023-07-08T04:39:05;7.82;;;3.42;;
55915;SDS011;41826;53.246;-6.670;2023-07-08T04:41:31;4.57;;;2.38;;
55915;SDS011;41826;53.246;-6.670;2023-07-08T04:43:57;7.13;;;2.50;;
55915;SDS011;41826;53.246;-6.670;2023-07-08T04:46:38;10.15;;;2.92;;
55915;SDS011;41826;53.246;-6.670;2023-07-08T04:49:06;6.22;;;2.63;;
55915;SDS011;41826;53.246;-6.670;2023-07-08T04:51:34;7.45;;;2.60;;
55915;SDS011;41826;53.246;-6.670;2023-07-08T04:54:00;6.15;;;2.35;;
55915;SDS011;41826;53.246;-6.670;2023-07-08T04:56:27;10.27;;;3.20;;
55915;SDS011;41826;53.246;-6.670;2023-07-08T04:59:02;8.00;;;2.92;;
55915;SDS011;41826;53.246;-6.670;2023-07-08T05:01:28;7.32;;;3.00;;
55915;SDS011;41826;53.246;-6.670;2023-07-08T05:03:53;9.55;;;2.90;;
55915;SDS011;41826;53.246;-6.670;2023-07-08T05:06:18;11.63;;;3.33;;
55915;SDS011;41826;53.246;-6.670;2023-07-08T05:08:44;12.15;;;3.20;;
55915;SDS011;41826;53.246;-6.670;2023-07-08T05:11:11;8.90;;;2.90;;
55915;SDS011;41826;53.246;-6.670;2023-07-08T05:13:36;10.48;;;3.58;;
55915;SDS011;41826;53.246;-6.670;2023-07-08T05:16:02;11.93;;;3.10;;
55915;SDS011;41826;53.246;-6.670;2023-07-08T05:18:27;12.63;;;3.45;;
55915;SDS011;41826;53.246;-6.670;2023-07-08T05:20:53;14.10;;;3.30;;
55915;SDS011;41826;53.246;-6.670;2023-07-08T05:23:19;11.52;;;3.38;;
55915;SDS011;41826;53.246;-6.670;2023-07-08T05:25:45;13.88;;;4.22;;
55915;SDS011;41826;53.246;-6.670;2023-07-08T05:28:11;12.52;;;4.10;;
55915;SDS011;41826;53.246;-6.670;2023-07-08T05:30:36;13.68;;;4.38;;
55915;SDS011;41826;53.246;-6.670;2023-07-08T05:33:05;15.25;;;3.70;;
55915;SDS011;41826;53.246;-6.670;2023-07-08T05:35:30;8.95;;;3.05;;
55915;SDS011;41826;53.246;-6.670;2023-07-08T05:37:56;11.32;;;3.33;;
55915;SDS011;41826;53.246;-6.670;2023-07-08T05:40:21;12.30;;;4.22;;
55915;SDS011;41826;53.246;-6.670;2023-07-08T05:42:48;11.68;;;2.78;;
55915;SDS011;41826;53.246;-6.670;2023-07-08T05:45:15;10.90;;;2.90;;
55915;SDS011;41826;53.246;-6.670;2023-07-08T05:47:40;13.35;;;2.90;;
55915;SDS011;41826;53.246;-6.670;2023-07-08T05:50:06;6.55;;;2.72;;
55915;SDS011;41826;53.246;-6.670;2023-07-08T05:52:32;9.35;;;2.33;;
55915;SDS011;41826;53.246;-6.670;2023-07-08T05:54:57;7.78;;;1.95;;
55915;SDS011;41826;53.246;-6.670;2023-07-08T05:57:23;8.07;;;1.90;;
55915;SDS011;41826;53.246;-6.670;2023-07-08T05:59:48;14.02;;;2.10;;
55915;SDS011;41826;53.246;-6.670;2023-07-08T06:02:15;10.52;;;1.92;;
55915;SDS011;41826;53.246;-6.670;2023-07-08T06:04:41;12.52;;;1.90;;
55915;SDS011;41826;53.246;-6.670;2023-07-08T06:07:06;10.07;;;1.95;;
55915;SDS011;41826;53.246;-6.670;2023-07-08T06:09:32;15.38;;;2.42;;
55915;SDS011;41826;53.246;-6.670;2023-07-08T06:11:57;17.42;;;2.92;;
55915;SDS011;41826;53.246;-6.670;2023-07-08T06:14:23;20.73;;;2.90;;
55915;SDS011;41826;53.246;-6.670;2023-07-08T06:16:48;15.18;;;2.42;;
55915;SDS011;41826;53.246;-6.670;2023-07-08T06:19:13;16.13;;;2.78;;
55915;SDS011;41826;53.246;-6.670;2023-07-08T06:21:40;11.88;;;2.50;;
55915;SDS011;41826;53.246;-6.670;2023-07-08T06:24:05;16.75;;;2.83;;
55915;SDS011;41826;53.246;-6.670;2023-07-08T06:26:32;16.42;;;2.70;;
55915;SDS011;41826;53.246;-6.670;2023-07-08T06:28:57;13.32;;;2.00;;
55915;SDS011;41826;53.246;-6.670;2023-07-08T06:31:22;13.77;;;2.10;;
55915;SDS011;41826;53.246;-6.670;2023-07-08T06:33:48;14.88;;;2.03;;
55915;SDS011;41826;53.246;-6.670;2023-07-08T06:36:13;14.88;;;2.22;;
55915;SDS011;41826;53.246;-6.670;2023-07-08T06:38:38;13.20;;;2.53;;
55915;SDS011;41826;53.246;-6.670;2023-07-08T06:41:04;12.98;;;2.42;;
55915;SDS011;41826;53.246;-6.670;2023-07-08T06:43:29;15.57;;;2.67;;
55915;SDS011;41826;53.246;-6.670;2023-07-08T06:45:55;19.92;;;2.45;;
55915;SDS011;41826;53.246;-6.670;2023-07-08T06:48:20;13.27;;;2.10;;
55915;SDS011;41826;53.246;-6.670;2023-07-08T06:50:47;15.73;;;2.17;;
55915;SDS011;41826;53.246;-6.670;2023-07-08T06:53:13;14.55;;;2.50;;
55915;SDS011;41826;53.246;-6.670;2023-07-08T06:55:39;14.10;;;3.17;;
55915;SDS011;41826;53.246;-6.670;2023-07-08T06:58:04;13.73;;;1.80;;
55915;SDS011;41826;53.246;-6.670;2023-07-08T07:00:30;9.20;;;1.65;;
55915;SDS011;41826;53.246;-6.670;2023-07-08T07:02:55;13.77;;;2.40;;
55915;SDS011;41826;53.246;-6.670;2023-07-08T07:05:21;15.18;;;2.28;;
55915;SDS011;41826;53.246;-6.670;2023-07-08T07:07:46;10.85;;;2.08;;
55915;SDS011;41826;53.246;-6.670;2023-07-08T07:10:11;16.13;;;2.22;;
55915;SDS011;41826;53.246;-6.670;2023-07-08T07:12:37;15.30;;;2.97;;
55915;SDS011;41826;53.246;-6.670;2023-07-08T07:15:02;15.18;;;2.22;;
55915;SDS011;41826;53.246;-6.670;2023-07-08T07:17:29;9.40;;;1.60;;
55915;SDS011;41826;53.246;-6.670;2023-07-08T07:19:55;14.65;;;1.85;;
55915;SDS011;41826;53.246;-6.670;2023-07-08T07:22:20;13.20;;;1.67;;
55915;SDS011;41826;53.246;-6.670;2023-07-08T07:24:46;15.00;;;1.70;;
55915;SDS011;41826;53.246;-6.670;2023-07-08T07:27:11;15.20;;;2.05;;
55915;SDS011;41826;53.246;-6.670;2023-07-08T07:29:41;13.48;;;2.60;;
55915;SDS011;41826;53.246;-6.670;2023-07-08T07:32:08;11.48;;;1.80;;
55915;SDS011;41826;53.246;-6.670;2023-07-08T07:34:34;11.05;;;1.80;;
55915;SDS011;41826;53.246;-6.670;2023-07-08T07:36:59;9.93;;;1.65;;
55915;SDS011;41826;53.246;-6.670;2023-07-08T07:39:25;13.85;;;2.03;;
55915;SDS011;41826;53.246;-6.670;2023-07-08T07:41:50;8.75;;;1.50;;
55915;SDS011;41826;53.246;-6.670;2023-07-08T07:44:16;10.10;;;1.60;;
55915;SDS011;41826;53.246;-6.670;2023-07-08T07:46:41;9.52;;;1.27;;
55915;SDS011;41826;53.246;-6.670;2023-07-08T07:49:06;11.63;;;1.35;;
55915;SDS011;41826;53.246;-6.670;2023-07-08T07:51:32;12.30;;;1.70;;
55915;SDS011;41826;53.246;-6.670;2023-07-08T07:53:57;12.18;;;1.27;;
55915;SDS011;41826;53.246;-6.670;2023-07-08T07:56:22;13.95;;;1.85;;
55915;SDS011;41826;53.246;-6.670;2023-07-08T07:58:48;15.25;;;2.17;;
55915;SDS011;41826;53.246;-6.670;2023-07-08T08:01:13;9.02;;;1.42;;
55915;SDS011;41826;53.246;-6.670;2023-07-08T08:03:39;7.88;;;1.40;;
55915;SDS011;41826;53.246;-6.670;2023-07-08T08:06:04;13.07;;;1.30;;
55915;SDS011;41826;53.246;-6.670;2023-07-08T08:08:29;11.63;;;1.00;;
55915;SDS011;41826;53.246;-6.670;2023-07-08T08:10:55;11.32;;;1.23;;
55915;SDS011;41826;53.246;-6.670;2023-07-08T08:13:20;8.32;;;1.25;;
55915;SDS011;41826;53.246;-6.670;2023-07-08T08:15:46;6.50;;;1.30;;
55915;SDS011;41826;53.246;-6.670;2023-07-08T08:18:11;6.35;;;1.20;;
55915;SDS011;41826;53.246;-6.670;2023-07-08T08:20:36;7.82;;;1.02;;
55915;SDS011;41826;53.246;-6.670;2023-07-08T08:23:04;7.35;;;1.35;;
55915;SDS011;41826;53.246;-6.670;2023-07-08T08:25:31;9.98;;;1.40;;
55915;SDS011;41826;53.246;-6.670;2023-07-08T08:27:57;8.48;;;1.75;;
55915;SDS011;41826;53.246;-6.670;2023-07-08T08:30:22;6.45;;;0.93;;
55915;SDS011;41826;53.246;-6.670;2023-07-08T08:32:47;9.35;;;1.48;;
55915;SDS011;41826;53.246;-6.670;2023-07-08T08:35:13;9.35;;;1.10;;
55915;SDS011;41826;53.246;-6.670;2023-07-08T08:37:38;11.50;;;1.42;;
55915;SDS011;41826;53.246;-6.670;2023-07-08T08:40:04;12.25;;;1.73;;
55915;SDS011;41826;53.246;-6.670;2023-07-08T08:45:32;6.82;;;1.13;;
55915;SDS011;41826;53.246;-6.670;2023-07-08T08:48:03;6.18;;;1.42;;
55915;SDS011;41826;53.246;-6.670;2023-07-08T08:53:16;8.60;;;1.50;;
55915;SDS011;41826;53.246;-6.670;2023-07-08T08:55:44;9.00;;;1.23;;
55915;SDS011;41826;53.246;-6.670;2023-07-08T09:00:56;5.50;;;0.90;;
55915;SDS011;41826;53.246;-6.670;2023-07-08T09:04:11;10.85;;;1.23;;
55915;SDS011;41826;53.246;-6.670;2023-07-08T09:08:41;3.75;;;0.90;;
55915;SDS011;41826;53.246;-6.670;2023-07-08T09:14:00;6.43;;;1.10;;
55915;SDS011;41826;53.246;-6.670;2023-07-08T09:16:29;5.65;;;0.90;;
55915;SDS011;41826;53.246;-6.670;2023-07-08T09:22:00;5.20;;;0.70;;
55915;SDS011;41826;53.246;-6.670;2023-07-08T09:24:45;6.07;;;0.90;;
55915;SDS011;41826;53.246;-6.670;2023-07-08T09:27:15;7.78;;;1.10;;
55915;SDS011;41826;53.246;-6.670;2023-07-08T09:29:40;7.00;;;1.38;;
55915;SDS011;41826;53.246;-6.670;2023-07-08T09:32:13;4.90;;;1.05;;
55915;SDS011;41826;53.246;-6.670;2023-07-08T09:35:25;6.15;;;1.15;;
55915;SDS011;41826;53.246;-6.670;2023-07-08T09:37:33;9.05;;;1.20;;
55915;SDS011;41826;53.246;-6.670;2023-07-08T09:40:01;7.30;;;1.08;;
55915;SDS011;41826;53.246;-6.670;2023-07-08T09:42:39;7.90;;;1.33;;
55915;SDS011;41826;53.246;-6.670;2023-07-08T09:45:12;8.13;;;1.35;;
55915;SDS011;41826;53.246;-6.670;2023-07-08T09:47:39;8.90;;;1.08;;
55915;SDS011;41826;53.246;-6.670;2023-07-08T09:52:43;9.70;;;1.08;;
55915;SDS011;41826;53.246;-6.670;2023-07-08T09:55:12;6.75;;;1.05;;
55915;SDS011;41826;53.246;-6.670;2023-07-08T09:57:37;6.90;;;1.60;;
55915;SDS011;41826;53.246;-6.670;2023-07-08T10:00:08;8.88;;;1.67;;
55915;SDS011;41826;53.246;-6.670;2023-07-08T10:05:19;10.73;;;1.70;;
55915;SDS011;41826;53.246;-6.670;2023-07-08T10:07:48;17.10;;;1.70;;
55915;SDS011;41826;53.246;-6.670;2023-07-08T10:10:17;10.25;;;1.33;;
55915;SDS011;41826;53.246;-6.670;2023-07-08T10:12:51;16.17;;;2.03;;
55915;SDS011;41826;53.246;-6.670;2023-07-08T10:18:08;6.93;;;1.63;;
55915;SDS011;41826;53.246;-6.670;2023-07-08T10:20:53;6.20;;;1.17;;
55915;SDS011;41826;53.246;-6.670;2023-07-08T10:42:12;5.13;;;1.00;;
55915;SDS011;41826;53.246;-6.670;2023-07-08T10:48:01;6.70;;;0.90;;
55915;SDS011;41826;53.246;-6.670;2023-07-08T10:50:51;6.93;;;1.27;;
55915;SDS011;41826;53.246;-6.670;2023-07-08T10:56:40;5.00;;;0.93;;
55915;SDS011;41826;53.246;-6.670;2023-07-08T11:02:52;7.38;;;1.33;;
55915;SDS011;41826;53.246;-6.670;2023-07-08T11:08:01;6.53;;;1.20;;
55915;SDS011;41826;53.246;-6.670;2023-07-08T11:10:43;5.90;;;1.40;;
55915;SDS011;41826;53.246;-6.670;2023-07-08T11:13:17;4.07;;;0.77;;
55915;SDS011;41826;53.246;-6.670;2023-07-08T11:16:04;4.50;;;1.00;;
55915;SDS011;41826;53.246;-6.670;2023-07-08T11:21:28;5.82;;;1.20;;
55915;SDS011;41826;53.246;-6.670;2023-07-08T11:26:59;5.93;;;1.10;;
55915;SDS011;41826;53.246;-6.670;2023-07-08T11:29:35;3.50;;;0.90;;
55915;SDS011;41826;53.246;-6.670;2023-07-08T11:32:05;4.68;;;1.33;;
55915;SDS011;41826;53.246;-6.670;2023-07-08T11:34:34;3.70;;;1.13;;
55915;SDS011;41826;53.246;-6.670;2023-07-08T11:37:02;8.38;;;1.20;;
55915;SDS011;41826;53.246;-6.670;2023-07-08T11:39:33;4.95;;;1.17;;
55915;SDS011;41826;53.246;-6.670;2023-07-08T11:42:04;2.80;;;0.82;;
55915;SDS011;41826;53.246;-6.670;2023-07-08T11:44:46;4.72;;;0.90;;
55915;SDS011;41826;53.246;-6.670;2023-07-08T11:48:03;3.83;;;1.00;;
55915;SDS011;41826;53.246;-6.670;2023-07-08T11:52:59;4.07;;;1.02;;
55915;SDS011;41826;53.246;-6.670;2023-07-08T11:55:49;6.78;;;1.48;;
55915;SDS011;41826;53.246;-6.670;2023-07-08T12:03:38;3.85;;;1.05;;
55915;SDS011;41826;53.246;-6.670;2023-07-08T12:08:57;3.60;;;0.98;;
55915;SDS011;41826;53.246;-6.670;2023-07-08T12:11:27;2.70;;;0.90;;
55915;SDS011;41826;53.246;-6.670;2023-07-08T12:14:10;8.75;;;1.52;;
55915;SDS011;41826;53.246;-6.670;2023-07-08T12:16:37;7.55;;;1.13;;
55915;SDS011;41826;53.246;-6.670;2023-07-08T12:19:02;5.75;;;0.80;;
55915;SDS011;41826;53.246;-6.670;2023-07-08T12:21:34;3.25;;;0.75;;
55915;SDS011;41826;53.246;-6.670;2023-07-08T12:24:10;3.05;;;1.13;;
55915;SDS011;41826;53.246;-6.670;2023-07-08T12:26:38;6.10;;;1.00;;
55915;SDS011;41826;53.246;-6.670;2023-07-08T12:29:05;3.45;;;0.98;;
55915;SDS011;41826;53.246;-6.670;2023-07-08T12:31:30;5.25;;;1.30;;
55915;SDS011;41826;53.246;-6.670;2023-07-08T12:33:57;5.82;;;1.25;;
55915;SDS011;41826;53.246;-6.670;2023-07-08T12:36:24;5.53;;;1.38;;
55915;SDS011;41826;53.246;-6.670;2023-07-08T12:38:52;7.88;;;0.98;;
55915;SDS011;41826;53.246;-6.670;2023-07-08T12:41:25;10.25;;;1.20;;
55915;SDS011;41826;53.246;-6.670;2023-07-08T12:43:55;5.72;;;1.55;;
55915;SDS011;41826;53.246;-6.670;2023-07-08T12:46:22;7.25;;;1.80;;
55915;SDS011;41826;53.246;-6.670;2023-07-08T12:48:48;8.43;;;3.28;;
55915;SDS011;41826;53.246;-6.670;2023-07-08T12:51:25;8.00;;;3.38;;
55915;SDS011;41826;53.246;-6.670;2023-07-08T12:53:52;10.50;;;2.47;;
55915;SDS011;41826;53.246;-6.670;2023-07-08T12:56:18;3.67;;;1.80;;
55915;SDS011;41826;53.246;-6.670;2023-07-08T12:58:50;7.30;;;1.50;;
55915;SDS011;41826;53.246;-6.670;2023-07-08T13:01:19;5.38;;;1.27;;
55915;SDS011;41826;53.246;-6.670;2023-07-08T13:03:47;7.75;;;1.30;;
55915;SDS011;41826;53.246;-6.670;2023-07-08T13:06:16;5.80;;;1.33;;
55915;SDS011;41826;53.246;-6.670;2023-07-08T13:08:45;3.30;;;0.80;;
55915;SDS011;41826;53.246;-6.670;2023-07-08T13:11:13;4.30;;;1.10;;
55915;SDS011;41826;53.246;-6.670;2023-07-08T13:13:44;5.40;;;1.30;;
55915;SDS011;41826;53.246;-6.670;2023-07-08T13:16:15;3.78;;;0.95;;
55915;SDS011;41826;53.246;-6.670;2023-07-08T13:18:41;8.43;;;1.05;;
55915;SDS011;41826;53.246;-6.670;2023-07-08T13:21:08;6.10;;;0.95;;
55915;SDS011;41826;53.246;-6.670;2023-07-08T13:23:36;5.63;;;1.20;;
55915;SDS011;41826;53.246;-6.670;2023-07-08T13:26:11;7.20;;;1.45;;
55915;SDS011;41826;53.246;-6.670;2023-07-08T13:28:41;13.55;;;5.10;;
55915;SDS011;41826;53.246;-6.670;2023-07-08T13:31:16;7.93;;;1.10;;
55915;SDS011;41826;53.246;-6.670;2023-07-08T13:33:47;7.75;;;1.67;;
55915;SDS011;41826;53.246;-6.670;2023-07-08T13:36:16;4.18;;;1.02;;
55915;SDS011;41826;53.246;-6.670;2023-07-08T13:38:44;7.28;;;1.13;;
55915;SDS011;41826;53.246;-6.670;2023-07-08T13:41:10;5.13;;;1.73;;
55915;SDS011;41826;53.246;-6.670;2023-07-08T13:43:43;5.95;;;1.00;;
55915;SDS011;41826;53.246;-6.670;2023-07-08T13:49:00;3.72;;;0.95;;
55915;SDS011;41826;53.246;-6.670;2023-07-08T13:51:29;6.00;;;0.90;;
55915;SDS011;41826;53.246;-6.670;2023-07-08T13:54:01;3.70;;;1.13;;
55915;SDS011;41826;53.246;-6.670;2023-07-08T13:56:46;4.88;;;1.10;;
55915;SDS011;41826;53.246;-6.670;2023-07-08T13:59:15;8.85;;;1.17;;
55915;SDS011;41826;53.246;-6.670;2023-07-08T14:01:44;5.23;;;1.20;;
55915;SDS011;41826;53.246;-6.670;2023-07-08T14:04:10;4.65;;;0.73;;
55915;SDS011;41826;53.246;-6.670;2023-07-08T14:06:39;8.18;;;1.13;;
55915;SDS011;41826;53.246;-6.670;2023-07-08T14:11:46;5.47;;;1.45;;
55915;SDS011;41826;53.246;-6.670;2023-07-08T14:14:13;3.67;;;0.75;;
55915;SDS011;41826;53.246;-6.670;2023-07-08T14:16:44;7.72;;;1.13;;
55915;SDS011;41826;53.246;-6.670;2023-07-08T14:19:24;4.05;;;0.95;;
55915;SDS011;41826;53.246;-6.670;2023-07-08T14:22:02;4.40;;;0.93;;
55915;SDS011;41826;53.246;-6.670;2023-07-08T14:24:42;6.32;;;2.30;;
55915;SDS011;41826;53.246;-6.670;2023-07-08T14:27:08;3.63;;;1.20;;
55915;SDS011;41826;53.246;-6.670;2023-07-08T14:29:37;6.50;;;1.15;;
55915;SDS011;41826;53.246;-6.670;2023-07-08T14:32:03;6.43;;;1.50;;
55915;SDS011;41826;53.246;-6.670;2023-07-08T14:34:29;4.28;;;0.82;;
55915;SDS011;41826;53.246;-6.670;2023-07-08T14:36:57;4.70;;;0.90;;
55915;SDS011;41826;53.246;-6.670;2023-07-08T14:39:23;2.80;;;0.70;;
55915;SDS011;41826;53.246;-6.670;2023-07-08T14:41:48;10.10;;;1.45;;
55915;SDS011;41826;53.246;-6.670;2023-07-08T14:44:20;4.20;;;0.90;;
55915;SDS011;41826;53.246;-6.670;2023-07-08T14:46:50;4.90;;;1.00;;
55915;SDS011;41826;53.246;-6.670;2023-07-08T14:49:17;4.70;;;0.82;;
55915;SDS011;41826;53.246;-6.670;2023-07-08T14:51:44;12.63;;;1.55;;
55915;SDS011;41826;53.246;-6.670;2023-07-08T14:54:10;7.95;;;1.00;;
55915;SDS011;41826;53.246;-6.670;2023-07-08T14:56:35;15.80;;;1.83;;
55915;SDS011;41826;53.246;-6.670;2023-07-08T14:59:01;3.28;;;1.08;;
55915;SDS011;41826;53.246;-6.670;2023-07-08T15:01:27;5.53;;;0.60;;
55915;SDS011;41826;53.246;-6.670;2023-07-08T15:03:55;2.25;;;1.10;;
55915;SDS011;41826;53.246;-6.670;2023-07-08T15:06:23;4.15;;;1.00;;
55915;SDS011;41826;53.246;-6.670;2023-07-08T15:08:49;4.32;;;1.00;;
55915;SDS011;41826;53.246;-6.670;2023-07-08T15:11:14;2.67;;;0.82;;
55915;SDS011;41826;53.246;-6.670;2023-07-08T15:13:41;6.10;;;1.10;;
55915;SDS011;41826;53.246;-6.670;2023-07-08T15:16:13;5.63;;;0.80;;
55915;SDS011;41826;53.246;-6.670;2023-07-08T15:18:41;7.80;;;1.08;;
55915;SDS011;41826;53.246;-6.670;2023-07-08T15:21:11;6.38;;;1.20;;
55915;SDS011;41826;53.246;-6.670;2023-07-08T15:23:37;7.18;;;1.25;;
55915;SDS011;41826;53.246;-6.670;2023-07-08T15:26:04;3.80;;;1.10;;
55915;SDS011;41826;53.246;-6.670;2023-07-08T15:31:07;6.75;;;1.13;;
55915;SDS011;41826;53.246;-6.670;2023-07-08T15:33:34;4.45;;;1.10;;
55915;SDS011;41826;53.246;-6.670;2023-07-08T15:36:00;7.15;;;1.02;;
55915;SDS011;41826;53.246;-6.670;2023-07-08T15:38:25;3.05;;;0.95;;
55915;SDS011;41826;53.246;-6.670;2023-07-08T15:40:50;5.35;;;1.02;;
55915;SDS011;41826;53.246;-6.670;2023-07-08T15:43:17;5.68;;;0.80;;
55915;SDS011;41826;53.246;-6.670;2023-07-08T15:45:43;8.20;;;0.90;;
55915;SDS011;41826;53.246;-6.670;2023-07-08T15:48:13;5.88;;;1.10;;
55915;SDS011;41826;53.246;-6.670;2023-07-08T15:50:40;5.82;;;1.02;;
55915;SDS011;41826;53.246;-6.670;2023-07-08T15:53:05;9.05;;;1.10;;
55915;SDS011;41826;53.246;-6.670;2023-07-08T15:55:31;4.88;;;1.00;;
55915;SDS011;41826;53.246;-6.670;2023-07-08T15:58:01;4.82;;;0.85;;
55915;SDS011;41826;53.246;-6.670;2023-07-08T16:00:31;4.43;;;1.13;;
55915;SDS011;41826;53.246;-6.670;2023-07-08T16:03:00;5.25;;;0.90;;
55915;SDS011;41826;53.246;-6.670;2023-07-08T16:05:28;3.53;;;0.90;;